No particular awareness of the weather is required.    There are no Weather-warnings


Meteo18 Weather Cam more information Meteo18 Weather Cam


Thunder radar more information blitzortung!


Rain radar more information rain snow radar


Visit our other weather sites:

Template documentation
and downloads

And another site



Weather Underground History page Text

Daily Summary for January 24, 2018 Units:  Metric    English   Both
« Previous Day
Next Day »
Daily Weekly Monthly Yearly Custom
  High: Low: Average:
Temperature: -17.8 °C -13.4 °C -12.3 °C
Dew Point: -17.8 °C -13.8 °C -13.2 °C
Humidity: Humidity % 78 % 89 %
Wind Speed: 0 km/h 2.3 km/h 14.3 km/h
Wind Gust: 0 km/h - -
Wind:- - SSW
Pressure: 0 hPa 34486.4 hPa -
Precipitation: 0 mm    
Historical Graphs
 
 
Tabular Data for January 24, 2018
Time Temperature Dew Point Pressure Wind Wind Speed Wind Gust Humidity Rainfall Rate (Hourly)
-17.8 °C -17.8 °C 0 hPa Calm     Humidity % 0 mm
00:01 -12.4 °C -12.8 °C 34774.2 hPa WSW 20.9 km/h 33.6 km/h 95 % 0 mm
00:13 -12.4 °C -12.8 °C 34774.2 hPa SW 15.6 km/h 28.5 km/h 95 % 0 mm
00:19 -12.4 °C -12.8 °C 34784.4 hPa SSW 12.7 km/h 20.8 km/h 95 % 0 mm
00:31 -12.4 °C -12.8 °C 34774.2 hPa SW 20.9 km/h 28.5 km/h 95 % 0 mm
00:37 -12.4 °C -12.8 °C 34774.2 hPa SW 17.9 km/h 28.5 km/h 95 % 0 mm
00:49 -12.4 °C -12.8 °C 34774.2 hPa SW 10.3 km/h 18.2 km/h 95 % 0 mm
01:01 -12.4 °C -12.9 °C 34774.2 hPa SSW 10.3 km/h 20.8 km/h 95 % 0 mm
01:07 -12.4 °C -12.9 °C 34760.7 hPa South 12.7 km/h 18.2 km/h 95 % 0 mm
01:13 -12.4 °C -12.9 °C 34760.7 hPa SSW 12.7 km/h 18.2 km/h 95 % 0 mm
01:19 -12.5 °C -12.9 °C 34760.7 hPa South 15.6 km/h 18.2 km/h 95 % 0 mm
01:25 -12.5 °C -12.9 °C 34760.7 hPa SSW 7.6 km/h 18.2 km/h 95 % 0 mm
01:31 -12.5 °C -12.9 °C 34760.7 hPa SSW 10.3 km/h 18.2 km/h 95 % 0 mm
01:37 -12.6 °C -13 °C 34760.7 hPa SSW 12.7 km/h 18.2 km/h 95 % 0 mm
01:43 -12.6 °C -13 °C 34760.7 hPa SSW 10.3 km/h 18.2 km/h 95 % 0 mm
01:49 -12.6 °C -13 °C 34750.5 hPa SSW 7.6 km/h 18.2 km/h 95 % 0 mm
01:55 -12.6 °C -13 °C 34750.5 hPa South 2.3 km/h 15.6 km/h 95 % 0 mm
02:01 -12.6 °C -13.1 °C 34750.5 hPa SSW 12.7 km/h 12.9 km/h 95 % 0 mm
02:07 -12.6 °C -13.1 °C 34750.5 hPa SSW 5.1 km/h 10.3 km/h 95 % 0 mm
02:13 -12.6 °C -13.1 °C 34750.5 hPa SSW 7.6 km/h 10.3 km/h 95 % 0 mm
02:25 -12.6 °C -13.1 °C 34750.5 hPa SSW 7.6 km/h 10.3 km/h 95 % 0 mm
02:31 -12.6 °C -13.1 °C 34760.7 hPa SSW 2.3 km/h 7.7 km/h 95 % 0 mm
02:37 -12.6 °C -13.1 °C 34750.5 hPa South 5.1 km/h 7.7 km/h 95 % 0 mm
02:44 -12.7 °C -13.1 °C 34750.5 hPa South 7.6 km/h 10.3 km/h 95 % 0 mm
02:50 -12.7 °C -13.1 °C 34750.5 hPa SSW 7.6 km/h 10.3 km/h 95 % 0 mm
02:56 -12.7 °C -13.1 °C 34750.5 hPa SSW 7.6 km/h 15.6 km/h 95 % 0 mm
03:02 -12.6 °C -13.1 °C 34750.5 hPa SSW 10.3 km/h 12.9 km/h 95 % 0 mm
03:08 -12.6 °C -13.1 °C 34750.5 hPa SSW 7.6 km/h 12.9 km/h 95 % 0 mm
03:14 -12.6 °C -13.1 °C 34750.5 hPa SSW 12.7 km/h 12.9 km/h 95 % 0 mm
03:20 -12.6 °C -13.1 °C 34750.5 hPa South 10.3 km/h 12.9 km/h 95 % 0 mm
03:26 -12.6 °C -13.1 °C 34750.5 hPa SE 5.1 km/h 10.3 km/h 95 % 0 mm
03:38 -12.6 °C -13.1 °C 34740.4 hPa SSW 5.1 km/h 12.9 km/h 95 % 0 mm
03:44 -12.6 °C -13.1 °C 34740.4 hPa South 7.6 km/h 15.6 km/h 95 % 0 mm
03:50 -12.7 °C -13.1 °C 34740.4 hPa South 7.6 km/h 12.9 km/h 95 % 0 mm
03:56 -12.7 °C -13.1 °C 34740.4 hPa SSW 5.1 km/h 12.9 km/h 95 % 0 mm
04:08 -12.7 °C -13.2 °C 34740.4 hPa SSW 12.7 km/h 20.8 km/h 94 % 0 mm
04:14 -12.7 °C -13.2 °C 34726.8 hPa SSW 17.9 km/h 23.3 km/h 94 % 0 mm
04:20 -12.7 °C -13.2 °C 34740.4 hPa SSW 12.7 km/h 15.6 km/h 94 % 0 mm
04:26 -12.7 °C -13.2 °C 34726.8 hPa South 12.7 km/h 15.6 km/h 94 % 0 mm
04:32 -12.7 °C -13.2 °C 34726.8 hPa SSW 7.6 km/h 18.2 km/h 94 % 0 mm
04:44 -12.7 °C -13.2 °C 34726.8 hPa SSW 15.6 km/h 15.6 km/h 94 % 0 mm
04:50 -12.7 °C -13.2 °C 34726.8 hPa SSW 10.3 km/h 12.9 km/h 94 % 0 mm
04:56 -12.8 °C -13.3 °C 34726.8 hPa SSW 12.7 km/h 18.2 km/h 94 % 0 mm
05:02 -12.8 °C -13.3 °C 34726.8 hPa SSW 17.9 km/h 20.8 km/h 94 % 0 mm
05:08 -12.8 °C -13.3 °C 34726.8 hPa SSW 15.6 km/h 23.3 km/h 94 % 0 mm
05:14 -12.8 °C -13.3 °C 34726.8 hPa SSW 12.7 km/h 18.2 km/h 94 % 0 mm
05:26 -12.8 °C -13.3 °C 34726.8 hPa SSW 12.7 km/h 15.6 km/h 94 % 0 mm
05:32 -12.9 °C -13.4 °C 34726.8 hPa SW 12.7 km/h 15.6 km/h 94 % 0 mm
05:38 -12.9 °C -13.4 °C 34716.7 hPa SW 7.6 km/h 15.6 km/h 94 % 0 mm
05:50 -13.1 °C -13.6 °C 34716.7 hPa SSW 10.3 km/h 12.9 km/h 94 % 0 mm
05:56 -13.2 °C -13.6 °C 34716.7 hPa SSW 10.3 km/h 15.6 km/h 95 % 0 mm
06:02 -13.2 °C -13.7 °C 34716.7 hPa SSW 5.1 km/h 10.3 km/h 95 % 0 mm
06:08 -13.3 °C -13.8 °C 34703.1 hPa SSW 5.1 km/h 10.3 km/h 95 % 0 mm
06:14 -13.4 °C -13.8 °C 34703.1 hPa SSW 5.1 km/h 7.7 km/h 95 % 0 mm
06:32 -13.2 °C -13.6 °C 34703.1 hPa SSW 10.3 km/h 12.9 km/h 96 % 0 mm
06:38 -13.2 °C -13.6 °C 34703.1 hPa South 12.7 km/h 15.6 km/h 95 % 0 mm
06:44 -13.1 °C -13.6 °C 34703.1 hPa SSW 12.7 km/h 18.2 km/h 95 % 0 mm
06:50 -13.1 °C -13.6 °C 34703.1 hPa SW 10.3 km/h 12.9 km/h 95 % 0 mm
07:02 -13.1 °C -13.6 °C 34703.1 hPa SSW 7.6 km/h 15.6 km/h 95 % 0 mm
07:08 -13.1 °C -13.6 °C 34703.1 hPa SSW 12.7 km/h 12.9 km/h 95 % 0 mm
07:14 -13 °C -13.4 °C 34703.1 hPa SSW 7.6 km/h 10.3 km/h 95 % 0 mm
07:20 -13 °C -13.4 °C 34703.1 hPa SSW 7.6 km/h 12.9 km/h 95 % 0 mm
07:26 -13 °C -13.4 °C 34703.1 hPa SSW 12.7 km/h 15.6 km/h 95 % 0 mm
07:32 -12.9 °C -13.4 °C 34693 hPa SW 10.3 km/h 12.9 km/h 94 % 0 mm
07:38 -13 °C -13.5 °C 34693 hPa SSW 10.3 km/h 18.2 km/h 94 % 0 mm
07:44 -13 °C -13.5 °C 34693 hPa SSW 10.3 km/h 12.9 km/h 94 % 0 mm
07:50 -13 °C -13.4 °C 34693 hPa SSW 5.1 km/h 10.3 km/h 95 % 0 mm
07:56 -13 °C -13.4 °C 34693 hPa SSW 7.6 km/h 10.3 km/h 95 % 0 mm
08:02 -13 °C -13.4 °C 34693 hPa SSW 5.1 km/h 7.7 km/h 95 % 0 mm
08:08 -13 °C -13.4 °C 34693 hPa SSW 10.3 km/h 12.9 km/h 95 % 0 mm
08:14 -13 °C -13.4 °C 34682.8 hPa SW 7.6 km/h 7.7 km/h 95 % 0 mm
08:20 -13 °C -13.4 °C 34693 hPa SW 10.3 km/h 10.3 km/h 95 % 0 mm
08:32 -13 °C -13.5 °C 34682.8 hPa South 10.3 km/h 15.6 km/h 94 % 0 mm
08:44 -12.9 °C -13.4 °C 34682.8 hPa SW 10.3 km/h 10.3 km/h 94 % 0 mm
08:50 -13 °C -13.5 °C 34682.8 hPa South 7.6 km/h 15.6 km/h 94 % 0 mm
08:56 -12.9 °C -13.4 °C 34682.8 hPa SSW 10.3 km/h 23.3 km/h 94 % 0 mm
09:02 -12.9 °C -13.6 °C 34682.8 hPa SSW 12.7 km/h 18.2 km/h 93 % 0 mm
09:08 -12.9 °C -13.5 °C 34669.3 hPa SSW 15.6 km/h 18.2 km/h 93 % 0 mm
09:20 -12.8 °C -13.5 °C 34669.3 hPa SW 12.7 km/h 20.8 km/h 92 % 0 mm
09:26 -12.8 °C -13.5 °C 34669.3 hPa SW 20.9 km/h 20.9 km/h 92 % 0 mm
09:32 -12.9 °C -13.7 °C 34669.3 hPa SW 20.9 km/h 20.9 km/h 91 % 0 mm
09:38 -12.9 °C -13.7 °C 34669.3 hPa South 20.9 km/h 23.3 km/h 91 % 0 mm
09:44 -12.9 °C -13.7 °C 34669.3 hPa SW 15.6 km/h 23.3 km/h 91 % 0 mm
09:50 -12.9 °C -13.7 °C 34669.3 hPa SSW 20.9 km/h 23.3 km/h 91 % 0 mm
09:56 -12.9 °C -13.7 °C 34669.3 hPa SW 20.9 km/h 20.9 km/h 91 % 0 mm
10:02 -12.8 °C -13.6 °C 34669.3 hPa SW 7.6 km/h 12.9 km/h 91 % 0 mm
10:08 -12.8 °C -13.6 °C 34669.3 hPa South 10.3 km/h 15.6 km/h 91 % 0 mm
10:14 -12.8 °C -13.6 °C 34659.1 hPa South 10.3 km/h 18.2 km/h 91 % 0 mm
10:26 -12.7 °C -13.6 °C 34669.3 hPa SSW 15.6 km/h 20.8 km/h 90 % 0 mm
10:32 -12.6 °C -13.4 °C 34669.3 hPa South 15.6 km/h 18.2 km/h 91 % 0 mm
10:38 -12.6 °C -13.3 °C 34659.1 hPa SW 12.7 km/h 18.2 km/h 91 % 0 mm
10:44 -12.5 °C -13.4 °C 34659.1 hPa SSW 17.9 km/h 20.8 km/h 90 % 0 mm
10:51 -12.4 °C -13.3 °C 34669.3 hPa SSW 15.6 km/h 20.8 km/h 90 % 0 mm
10:56 -12.4 °C -13.3 °C 34659.1 hPa SSE 10.3 km/h 20.8 km/h 90 % 0 mm
11:02 -12.3 °C -13.2 °C 34659.1 hPa South 15.6 km/h 20.8 km/h 90 % 0 mm
11:09 -12.3 °C -13.2 °C 34659.1 hPa SW 17.9 km/h 25.9 km/h 89 % 0 mm
11:15 -12.3 °C -13.2 °C 34659.1 hPa SW 15.6 km/h 18.2 km/h 89 % 0 mm
11:21 -12.2 °C -13.2 °C 34659.1 hPa SW 15.6 km/h 18.2 km/h 88 % 0 mm
11:27 -12.1 °C -13.1 °C 34659.1 hPa SW 17.9 km/h 18.2 km/h 88 % 0 mm
11:33 -12 °C -13.1 °C 34645.6 hPa SSW 17.9 km/h 23.3 km/h 88 % 0 mm
11:39 -11.9 °C -13.1 °C 34645.6 hPa SSW 20.9 km/h 20.9 km/h 87 % 0 mm
11:45 -11.8 °C -13 °C 34645.6 hPa South 10.3 km/h 23.3 km/h 87 % 0 mm
11:51 -11.8 °C -13 °C 34645.6 hPa SSW 15.6 km/h 25.9 km/h 86 % 0 mm
11:57 -11.7 °C -12.8 °C 34635.4 hPa SSW 17.9 km/h 28.5 km/h 87 % 0 mm
12:03 -11.6 °C -12.9 °C 34635.4 hPa SSW 23 km/h 25.9 km/h 85 % 0 mm
12:09 -11.6 °C -12.8 °C 34635.4 hPa SSW 10.3 km/h 20.8 km/h 86 % 0 mm
12:15 -11.6 °C -12.9 °C 34635.4 hPa SSW 20.9 km/h 25.9 km/h 85 % 0 mm
12:21 -11.5 °C -12.9 °C 34625.2 hPa SW 17.9 km/h 25.9 km/h 84 % 0 mm
12:27 -11.4 °C -12.8 °C 34625.2 hPa SSW 20.9 km/h 23.3 km/h 85 % 0 mm
12:33 -11.3 °C -12.8 °C 34625.2 hPa SW 15.6 km/h 28.5 km/h 84 % 0 mm
12:39 -11.3 °C -12.8 °C 34611.7 hPa SW 15.6 km/h 36.2 km/h 83 % 0 mm
12:45 -11.2 °C -13 °C 34611.7 hPa SSW 20.9 km/h 28.5 km/h 81 % 0 mm
12:51 -11.2 °C -12.7 °C 34611.7 hPa SW 15.6 km/h 20.8 km/h 83 % 0 mm
12:57 -11.1 °C -12.7 °C 34611.7 hPa SW 26.2 km/h 31.1 km/h 83 % 0 mm
13:03 -11.2 °C -12.9 °C 34601.5 hPa SW 26.2 km/h 36.2 km/h 81 % 0 mm
13:09 -11.2 °C -12.7 °C 34601.5 hPa SSW 17.9 km/h 28.5 km/h 83 % 0 mm
13:15 -11.1 °C -12.9 °C 34601.5 hPa South 17.9 km/h 25.9 km/h 80 % 0 mm
13:21 -11 °C -12.8 °C 34591.4 hPa SSW 23 km/h 31.1 km/h 80 % 0 mm
13:27 -10.9 °C -12.8 °C 34591.4 hPa SW 23 km/h 25.9 km/h 80 % 0 mm
13:33 -10.9 °C -12.9 °C 34577.8 hPa SW 23 km/h 28.5 km/h 78 % 0 mm
13:39 -10.9 °C -12.9 °C 34577.8 hPa SW 20.9 km/h 28.5 km/h 78 % 0 mm
13:45 -10.9 °C -12.8 °C 34577.8 hPa SSW 20.9 km/h 36.2 km/h 80 % 0 mm
13:51 -10.9 °C -12.8 °C 34577.8 hPa SSW 26.2 km/h 28.5 km/h 80 % 0 mm
13:57 -10.9 °C -12.9 °C 34567.7 hPa SW 26.2 km/h 33.6 km/h 79 % 0 mm
14:03 -10.9 °C -12.9 °C 34567.7 hPa SSW 23 km/h 41.4 km/h 79 % 0 mm
14:09 -10.9 °C -12.9 °C 34567.7 hPa SW 17.9 km/h 31.1 km/h 79 % 0 mm
14:15 -10.9 °C -12.9 °C 34554.1 hPa SW 26.2 km/h 26.2 km/h 79 % 0 mm
14:21 -11 °C -13.1 °C 34554.1 hPa SW 26.2 km/h 33.6 km/h 78 % 0 mm
14:33 -10.9 °C -12.8 °C 34544 hPa SSW 15.6 km/h 33.6 km/h 80 % 0 mm
14:39 -10.8 °C -12.7 °C 34544 hPa SSW 28.5 km/h 41.4 km/h 80 % 0 mm
14:51 -10.9 °C -12.9 °C 34533.8 hPa SW 33.6 km/h 41.4 km/h 78 % 0 mm
14:57 -10.9 °C -12.9 °C 34533.8 hPa SSW 28.5 km/h 44.1 km/h 78 % 0 mm
15:03 -10.9 °C -12.8 °C 34533.8 hPa SW 33.6 km/h 44.1 km/h 80 % 0 mm
15:09 -10.9 °C -13 °C 34520.3 hPa WSW 36.5 km/h 36.5 km/h 78 % 0 mm
15:15 -10.9 °C -12.9 °C 34520.3 hPa SW 28.5 km/h 36.2 km/h 79 % 0 mm
15:27 -10.9 °C -12.7 °C 34520.3 hPa SW 23 km/h 36.2 km/h 81 % 0 mm
15:33 -11 °C -12.9 °C 34520.3 hPa SSW 33.6 km/h 41.4 km/h 79 % 0 mm
15:39 -10.9 °C -12.9 °C 34520.3 hPa SW 36.5 km/h 38.8 km/h 79 % 0 mm
15:45 -11 °C -12.8 °C 34520.3 hPa SW 26.2 km/h 41.4 km/h 80 % 0 mm
15:57 -11 °C -12.9 °C 34520.3 hPa SW 20.9 km/h 31.1 km/h 79 % 0 mm
16:15 -11.1 °C -12.9 °C 34520.3 hPa SW 23 km/h 33.6 km/h 81 % 0 mm
16:21 -11.1 °C -12.9 °C 34520.3 hPa SSW 17.9 km/h 41.4 km/h 80 % 0 mm
16:27 -11.2 °C -12.8 °C 34520.3 hPa SSW 15.6 km/h 31.1 km/h 82 % 0 mm
16:33 -11.2 °C -12.7 °C 34520.3 hPa SSW 17.9 km/h 20.8 km/h 84 % 0 mm
16:45 -11.3 °C -12.9 °C 34520.3 hPa SSW 17.9 km/h 25.9 km/h 83 % 0 mm
16:51 -11.3 °C -13 °C 34520.3 hPa SW 26.2 km/h 28.5 km/h 82 % 0 mm
16:57 -11.3 °C -12.9 °C 34510.1 hPa SSW 15.6 km/h 25.9 km/h 83 % 0 mm
17:03 -11.4 °C -12.9 °C 34510.1 hPa SSW 10.3 km/h 18.2 km/h 84 % 0 mm
17:15 -11.6 °C -12.9 °C 34510.1 hPa SSW 10.3 km/h 15.6 km/h 85 % 0 mm
17:21 -11.7 °C -12.9 °C 34510.1 hPa SW 10.3 km/h 12.9 km/h 86 % 0 mm
17:27 -11.8 °C -13 °C 34510.1 hPa SSW 12.7 km/h 12.9 km/h 86 % 0 mm
17:33 -11.8 °C -13.1 °C 34510.1 hPa SW 12.7 km/h 18.2 km/h 86 % 0 mm
17:39 -12 °C -13.2 °C 34510.1 hPa SW 12.7 km/h 15.6 km/h 87 % 0 mm
17:45 -12.1 °C -13.3 °C 34496.6 hPa SW 10.3 km/h 15.6 km/h 87 % 0 mm
17:51 -12.2 °C -13.3 °C 34510.1 hPa SSW 12.7 km/h 15.6 km/h 88 % 0 mm
17:57 -12.3 °C -13.4 °C 34496.6 hPa SW 10.3 km/h 15.6 km/h 87 % 0 mm
18:09 -12.4 °C -13.4 °C 34496.6 hPa SW 12.7 km/h 12.9 km/h 88 % 0 mm
18:15 -12.5 °C -13.6 °C 34496.6 hPa SSW 10.3 km/h 12.9 km/h 88 % 0 mm
18:21 -12.6 °C -13.5 °C 34496.6 hPa SW 7.6 km/h 12.9 km/h 89 % 0 mm
18:33 -12.6 °C -13.6 °C 34496.6 hPa SW 5.1 km/h 10.3 km/h 88 % 0 mm
18:39 -12.6 °C -13.7 °C 34496.6 hPa SW 7.6 km/h 10.3 km/h 88 % 0 mm
18:45 -12.6 °C -13.7 °C 34496.6 hPa SW 7.6 km/h 12.9 km/h 88 % 0 mm
18:51 -12.6 °C -13.7 °C 34496.6 hPa SW 10.3 km/h 12.9 km/h 88 % 0 mm
18:57 -12.7 °C -13.6 °C 34496.6 hPa SW 12.7 km/h 12.9 km/h 89 % 0 mm
19:03 -12.7 °C -13.6 °C 34496.6 hPa SSW 10.3 km/h 12.9 km/h 89 % 0 mm
19:09 -12.7 °C -13.7 °C 34496.6 hPa SSW 10.3 km/h 12.9 km/h 89 % 0 mm
19:21 -12.7 °C -13.7 °C 34510.1 hPa SW 7.6 km/h 18.2 km/h 89 % 0 mm
19:27 -12.7 °C -13.7 °C 34510.1 hPa WSW 7.6 km/h 10.3 km/h 89 % 0 mm
19:33 -12.6 °C -13.6 °C 34510.1 hPa SW 7.6 km/h 12.9 km/h 89 % 0 mm
19:39 -12.6 °C -13.7 °C 34510.1 hPa SW 10.3 km/h 12.9 km/h 88 % 0 mm
19:45 -12.6 °C -13.6 °C 34510.1 hPa SW 7.6 km/h 12.9 km/h 88 % 0 mm
19:51 -12.4 °C -13.5 °C 34510.1 hPa SW 15.6 km/h 20.8 km/h 88 % 0 mm
19:57 -12.4 °C -13.5 °C 34510.1 hPa SW 12.7 km/h 18.2 km/h 88 % 0 mm
20:15 -12.7 °C -13.6 °C 34510.1 hPa SSW 10.3 km/h 15.6 km/h 90 % 0 mm
20:21 -12.6 °C -13.5 °C 34510.1 hPa SW 10.3 km/h 12.9 km/h 90 % 0 mm
20:27 -12.5 °C -13.4 °C 34510.1 hPa SW 12.7 km/h 20.8 km/h 89 % 0 mm
20:33 -12.3 °C -13.3 °C 34510.1 hPa SW 10.3 km/h 18.2 km/h 88 % 0 mm
20:39 -12.1 °C -13.3 °C 34510.1 hPa SW 17.9 km/h 23.3 km/h 86 % 0 mm
20:51 -11.8 °C -13.3 °C 34510.1 hPa WSW 15.6 km/h 23.3 km/h 83 % 0 mm
21:03 -11.8 °C -13.3 °C 34510.1 hPa SSW 5.1 km/h 20.8 km/h 83 % 0 mm
21:09 -11.8 °C -13.2 °C 34510.1 hPa SW 20.9 km/h 28.5 km/h 84 % 0 mm
21:15 -11.8 °C -13.2 °C 34510.1 hPa SW 26.2 km/h 28.5 km/h 84 % 0 mm
21:21 -11.8 °C -13.3 °C 34510.1 hPa SW 12.7 km/h 25.9 km/h 84 % 0 mm
21:33 -11.9 °C -13.3 °C 34510.1 hPa SW 23 km/h 23.3 km/h 84 % 0 mm
21:39 -12.1 °C -13.4 °C 34496.6 hPa South 12.7 km/h 18.2 km/h 85 % 0 mm
21:45 -12.3 °C -13.5 °C 34510.1 hPa SW 12.7 km/h 18.2 km/h 87 % 0 mm
21:51 -12.3 °C -13.4 °C 34510.1 hPa WSW 7.6 km/h 20.8 km/h 88 % 0 mm
21:57 -12.3 °C -13.4 °C 34510.1 hPa SSW 17.9 km/h 23.3 km/h 88 % 0 mm
22:03 -12.3 °C -13.3 °C 34510.1 hPa SW 12.7 km/h 20.8 km/h 88 % 0 mm
22:09 -12.1 °C -13.3 °C 34510.1 hPa SW 23 km/h 28.5 km/h 86 % 0 mm
22:15 -11.9 °C -13.2 °C 34510.1 hPa West 20.9 km/h 36.2 km/h 85 % 0 mm
22:21 -11.9 °C -13.2 °C 34510.1 hPa WSW 23 km/h 28.5 km/h 85 % 0 mm
22:27 -11.9 °C -13.2 °C 34510.1 hPa SW 23 km/h 38.8 km/h 85 % 0 mm
22:34 -11.9 °C -13.2 °C 34510.1 hPa WSW 15.6 km/h 28.5 km/h 85 % 0 mm
22:40 -12.1 °C -13.3 °C 34510.1 hPa SW 12.7 km/h 18.2 km/h 86 % 0 mm
22:46 -12.2 °C -13.4 °C 34510.1 hPa South 7.6 km/h 10.3 km/h 87 % 0 mm
22:52 -12.3 °C -13.4 °C 34510.1 hPa SSW 10.3 km/h 18.2 km/h 88 % 0 mm
22:58 -12.3 °C -13.4 °C 34496.6 hPa SSW 7.6 km/h 20.8 km/h 88 % 0 mm
23:04 -12.3 °C -13.4 °C 34496.6 hPa SW 12.7 km/h 23.3 km/h 88 % 0 mm
23:10 -12.3 °C -13.4 °C 34510.1 hPa SSW 15.6 km/h 28.5 km/h 87 % 0 mm
23:18 -12.1 °C -13.3 °C 34496.6 hPa SSW 20.9 km/h 28.5 km/h 86 % 0 mm
23:24 -12.2 °C -13.3 °C 34496.6 hPa SW 15.6 km/h 25.9 km/h 87 % 0 mm
23:30 -12.2 °C -13.4 °C 34510.1 hPa SW 15.6 km/h 18.2 km/h 87 % 0 mm
23:36 -12.3 °C -13.3 °C 34496.6 hPa South 12.7 km/h 15.6 km/h 88 % 0 mm
23:44 -12.3 °C -13.3 °C 34496.6 hPa South 5.1 km/h 15.6 km/h 88 % 0 mm
23:50 -12.3 °C -13.4 °C 34496.6 hPa SSW 12.7 km/h 18.2 km/h 88 % 0 mm
23:56 -12.3 °C -13.3 °C 34486.4 hPa SE 10.3 km/h 18.2 km/h 88 % 0 mm
Meteo18
Compliments of Weather Underground - 4 mb

Script developed by  Jim McMurry - jmcmurry@mwt.net Adapted for the template by  Wim van der Kuil - Leuven-Template.eu

You find our weather info also at:

European Weather Network

Weather Underground

Equipment we use:

Weather-station
Davis Vue

Weather-program
Meteobridge

Weather-server
Raspberry PI 2 B+

Provider
1 and 1

Davis Vue

Meteobridge

Raspberry PI 2 B+

1 and 1